createdAt,value
2018-09-03T00:00:06.198Z,21.59
2018-09-03T00:01:06.165Z,21.6
2018-09-03T00:02:06.214Z,21.58
2018-09-03T00:03:06.386Z,21.59
2018-09-03T00:04:06.031Z,21.6
2018-09-03T00:05:06.274Z,21.59
2018-09-03T00:06:06.079Z,21.59
2018-09-03T00:07:06.265Z,21.59
2018-09-03T00:08:06.114Z,21.6
2018-09-03T00:09:06.006Z,21.59
2018-09-03T00:10:06.039Z,21.59
2018-09-03T00:11:06.114Z,21.58
2018-09-03T00:12:06.075Z,21.6
2018-09-03T00:13:06.091Z,21.59
2018-09-03T00:14:05.952Z,21.59
2018-09-03T00:15:06.340Z,21.59
2018-09-03T00:16:06.021Z,21.59
2018-09-03T00:17:06.287Z,21.61
2018-09-03T00:18:05.957Z,21.58
2018-09-03T00:19:06.145Z,21.59
2018-09-03T00:20:06.188Z,21.58
2018-09-03T00:21:06.174Z,21.58
2018-09-03T00:22:05.940Z,21.59
2018-09-03T00:23:06.123Z,21.58
2018-09-03T00:24:06.140Z,21.58
2018-09-03T00:25:06.227Z,21.59
2018-09-03T00:26:05.998Z,21.58
2018-09-03T00:27:06.020Z,21.58
2018-09-03T00:28:06.010Z,21.58
2018-09-03T00:29:06.120Z,21.58
2018-09-03T00:30:05.977Z,21.57
2018-09-03T00:31:06.625Z,21.57
2018-09-03T00:32:05.927Z,21.57
2018-09-03T00:33:06.230Z,21.57
2018-09-03T00:34:06.063Z,21.58
2018-09-03T00:35:06.141Z,21.57
2018-09-03T00:36:06.186Z,21.57
2018-09-03T00:37:06.115Z,21.56
2018-09-03T00:38:05.939Z,21.57
2018-09-03T00:39:06.231Z,21.58
2018-09-03T00:40:05.965Z,21.58
2018-09-03T00:41:05.964Z,21.57
2018-09-03T00:42:05.973Z,21.57
2018-09-03T00:43:06.369Z,21.58
2018-09-03T00:44:05.959Z,21.59
2018-09-03T00:45:06.211Z,21.58
2018-09-03T00:46:05.979Z,21.58
2018-09-03T00:47:06.130Z,21.58
2018-09-03T00:48:06.101Z,21.58
2018-09-03T00:49:06.116Z,21.58
2018-09-03T00:50:06.216Z,21.58
2018-09-03T00:51:06.186Z,21.57
2018-09-03T00:52:06.244Z,21.56
2018-09-03T00:53:06.087Z,21.58
2018-09-03T00:54:05.952Z,21.57
2018-09-03T00:55:06.112Z,21.57
2018-09-03T00:56:06.010Z,21.57
2018-09-03T00:57:05.975Z,21.58
2018-09-03T00:58:06.042Z,21.57
2018-09-03T00:59:06.348Z,21.57
2018-09-03T01:00:05.952Z,21.57
2018-09-03T01:01:06.048Z,21.58
2018-09-03T01:02:05.976Z,21.57
2018-09-03T01:03:06.228Z,21.56
2018-09-03T01:04:05.997Z,21.57
2018-09-03T01:05:06.018Z,21.56
2018-09-03T01:06:05.986Z,21.57
2018-09-03T01:07:06.094Z,21.56
2018-09-03T01:08:05.948Z,21.55
2018-09-03T01:09:06.160Z,21.56
2018-09-03T01:10:05.935Z,21.58
2018-09-03T01:11:06.169Z,21.57
2018-09-03T01:12:05.936Z,21.57
2018-09-03T01:13:06.105Z,21.57
2018-09-03T01:14:06.011Z,21.56
2018-09-03T01:15:06.008Z,21.55
2018-09-03T01:16:05.976Z,21.56
2018-09-03T01:17:06.074Z,21.57
2018-09-03T01:18:05.995Z,21.57
2018-09-03T01:19:06.066Z,21.57
2018-09-03T01:20:06.127Z,21.57
2018-09-03T01:21:06.082Z,21.56
2018-09-03T01:22:06.091Z,21.56
2018-09-03T01:23:06.306Z,21.57
2018-09-03T01:24:05.998Z,21.56
2018-09-03T01:25:06.058Z,21.57
2018-09-03T01:26:06.052Z,21.55
2018-09-03T01:27:06.030Z,21.55
2018-09-03T01:28:06.036Z,21.56
2018-09-03T01:29:06.099Z,21.56
2018-09-03T01:30:06.075Z,21.57
2018-09-03T01:31:06.213Z,21.56
2018-09-03T01:32:06.007Z,21.55
2018-09-03T01:33:05.910Z,21.55
2018-09-03T01:34:05.972Z,21.56
2018-09-03T01:35:06.014Z,21.56
2018-09-03T01:36:05.993Z,21.55
2018-09-03T01:37:06.592Z,21.55
2018-09-03T01:38:06.013Z,21.54
2018-09-03T01:39:06.050Z,21.54
2018-09-03T01:40:06.028Z,21.56
2018-09-03T01:41:06.146Z,21.55
2018-09-03T01:42:06.180Z,21.55
2018-09-03T01:43:06.088Z,21.55
2018-09-03T01:44:05.970Z,21.55
2018-09-03T01:45:06.236Z,21.55
2018-09-03T01:46:05.929Z,21.55
2018-09-03T01:47:06.017Z,21.54
2018-09-03T01:48:06.313Z,21.54
2018-09-03T01:49:06.107Z,21.53
2018-09-03T01:50:05.929Z,21.55
2018-09-03T01:51:06.184Z,21.53
2018-09-03T01:52:05.963Z,21.54
2018-09-03T01:53:06.157Z,21.55
2018-09-03T01:54:05.936Z,21.53
2018-09-03T01:55:06.091Z,21.53
2018-09-03T01:56:05.937Z,21.53
2018-09-03T01:57:06.190Z,21.53
2018-09-03T01:58:05.990Z,21.53
2018-09-03T01:59:05.981Z,21.55
2018-09-03T02:00:05.950Z,21.53
2018-09-03T02:01:06.226Z,21.53
2018-09-03T02:02:06.037Z,21.54
2018-09-03T02:03:06.154Z,21.54
2018-09-03T02:04:05.923Z,21.54
2018-09-03T02:05:06.129Z,21.54
2018-09-03T02:06:05.972Z,21.54
2018-09-03T02:07:06.024Z,21.54
2018-09-03T02:08:05.959Z,21.54
2018-09-03T02:09:06.093Z,21.55
2018-09-03T02:10:05.963Z,21.54
2018-09-03T02:11:06.611Z,21.54
2018-09-03T02:12:06.021Z,21.54
2018-09-03T02:13:06.103Z,21.53
2018-09-03T02:14:05.992Z,21.54
2018-09-03T02:15:06.019Z,21.53
2018-09-03T02:16:05.891Z,21.52
2018-09-03T02:17:06.010Z,21.53
2018-09-03T02:18:06.159Z,21.52
2018-09-03T02:19:06.544Z,21.52
2018-09-03T02:20:06.195Z,21.53
2018-09-03T02:21:06.091Z,21.53
2018-09-03T02:22:05.969Z,21.52
2018-09-03T02:23:06.042Z,21.52
2018-09-03T02:24:05.887Z,21.53
2018-09-03T02:25:06.102Z,21.52
2018-09-03T02:26:05.922Z,21.53
2018-09-03T02:27:05.981Z,21.52
2018-09-03T02:28:06.161Z,21.53
2018-09-03T02:29:05.954Z,21.53
2018-09-03T02:30:06.007Z,21.53
2018-09-03T02:31:05.977Z,21.52
2018-09-03T02:32:05.920Z,21.52
2018-09-03T02:33:06.082Z,21.52
2018-09-03T02:34:05.888Z,21.52
2018-09-03T02:35:06.011Z,21.53
2018-09-03T02:36:05.930Z,21.52
2018-09-03T02:37:06.035Z,21.52
2018-09-03T02:38:05.921Z,21.51
2018-09-03T02:39:06.151Z,21.52
2018-09-03T02:40:05.961Z,21.52
2018-09-03T02:41:06.292Z,21.52
2018-09-03T02:42:06.069Z,21.52
2018-09-03T02:43:06.274Z,21.52
2018-09-03T02:44:05.991Z,21.52
2018-09-03T02:45:06.243Z,21.52
2018-09-03T02:46:05.911Z,21.52
2018-09-03T02:47:06.157Z,21.52
2018-09-03T02:48:05.937Z,21.51
2018-09-03T02:49:06.250Z,21.53
2018-09-03T02:50:05.936Z,21.51
2018-09-03T02:51:06.048Z,21.51
2018-09-03T02:52:05.922Z,21.51
2018-09-03T02:53:05.925Z,21.5
2018-09-03T02:54:05.990Z,21.51
2018-09-03T02:55:06.187Z,21.52
2018-09-03T02:56:06.195Z,21.51
2018-09-03T02:57:06.163Z,21.51
2018-09-03T02:58:05.935Z,21.53
2018-09-03T02:59:06.117Z,21.52
2018-09-03T03:00:05.955Z,21.52
2018-09-03T03:01:06.307Z,21.52
2018-09-03T03:02:05.964Z,21.51
2018-09-03T03:03:06.151Z,21.51
2018-09-03T03:04:05.989Z,21.5
2018-09-03T03:05:06.049Z,21.5
2018-09-03T03:06:06.140Z,21.5
2018-09-03T03:07:06.106Z,21.5
2018-09-03T03:08:06.061Z,21.5
2018-09-03T03:09:05.937Z,21.5
2018-09-03T03:10:05.942Z,21.49
2018-09-03T03:11:06.151Z,21.51
2018-09-03T03:12:05.971Z,21.5
2018-09-03T03:13:06.499Z,21.51
2018-09-03T03:14:05.955Z,21.48
2018-09-03T03:15:06.221Z,21.5
2018-09-03T03:16:05.963Z,21.51
2018-09-03T03:17:06.337Z,21.51
2018-09-03T03:18:05.999Z,21.5
2018-09-03T03:19:06.132Z,21.51
2018-09-03T03:20:05.885Z,21.5
2018-09-03T03:21:05.936Z,21.49
2018-09-03T03:22:05.949Z,21.51
2018-09-03T03:23:05.985Z,21.5
2018-09-03T03:24:06.261Z,21.49
2018-09-03T03:25:05.962Z,21.5
2018-09-03T03:26:06.410Z,21.5
2018-09-03T03:27:06.417Z,21.49
2018-09-03T03:28:06.171Z,21.5
2018-09-03T03:29:05.989Z,21.51
2018-09-03T03:30:06.029Z,21.51
2018-09-03T03:31:05.976Z,21.5
2018-09-03T03:32:05.915Z,21.51
2018-09-03T03:33:06.122Z,21.5
2018-09-03T03:34:05.926Z,21.5
2018-09-03T03:35:06.107Z,21.49
2018-09-03T03:36:05.917Z,21.5
2018-09-03T03:37:06.064Z,21.49
2018-09-03T03:38:05.962Z,21.49
2018-09-03T03:39:05.979Z,21.48
2018-09-03T03:40:05.951Z,21.48
2018-09-03T03:41:06.144Z,21.48
2018-09-03T03:42:06.123Z,21.48
2018-09-03T03:43:06.202Z,21.49
2018-09-03T03:44:05.926Z,21.48
2018-09-03T03:45:06.035Z,21.48
2018-09-03T03:46:06.034Z,21.49
2018-09-03T03:47:06.066Z,21.5
2018-09-03T03:48:05.898Z,21.49
2018-09-03T03:49:06.054Z,21.49
2018-09-03T03:50:06.105Z,21.5
2018-09-03T03:51:05.989Z,21.48
2018-09-03T03:52:05.968Z,21.49
2018-09-03T03:53:06.098Z,21.48
2018-09-03T03:54:06.070Z,21.49
2018-09-03T03:55:06.137Z,21.5
2018-09-03T03:56:06.216Z,21.5
2018-09-03T03:57:06.021Z,21.48
2018-09-03T03:58:05.876Z,21.48
2018-09-03T03:59:05.981Z,21.49
2018-09-03T04:00:05.915Z,21.49
2018-09-03T04:01:06.016Z,21.49
2018-09-03T04:02:05.955Z,21.48
2018-09-03T04:03:06.140Z,21.47
2018-09-03T04:04:05.934Z,21.49
2018-09-03T04:05:05.973Z,21.47
2018-09-03T04:06:05.923Z,21.48
2018-09-03T04:07:05.971Z,21.48
2018-09-03T04:08:05.940Z,21.47
2018-09-03T04:09:06.070Z,21.48
2018-09-03T04:10:05.922Z,21.48
2018-09-03T04:11:06.009Z,21.47
2018-09-03T04:12:05.895Z,21.47
2018-09-03T04:13:06.041Z,21.47
2018-09-03T04:14:05.870Z,21.48
2018-09-03T04:15:06.103Z,21.48
2018-09-03T04:16:05.925Z,21.47
2018-09-03T04:17:06.058Z,21.47
2018-09-03T04:18:05.925Z,21.47
2018-09-03T04:19:06.309Z,21.47
2018-09-03T04:20:05.943Z,21.47
2018-09-03T04:21:06.054Z,21.47
2018-09-03T04:22:05.912Z,21.48
2018-09-03T04:23:06.163Z,21.47
2018-09-03T04:24:06.235Z,21.47
2018-09-03T04:25:06.197Z,21.48
2018-09-03T04:26:05.854Z,21.47
2018-09-03T04:27:06.062Z,21.47
2018-09-03T04:28:05.930Z,21.46
2018-09-03T04:29:06.037Z,21.46
2018-09-03T04:30:05.937Z,21.47
2018-09-03T04:31:06.018Z,21.47
2018-09-03T04:32:05.994Z,21.47
2018-09-03T04:33:06.074Z,21.47
2018-09-03T04:34:06.134Z,21.46
2018-09-03T04:35:06.122Z,21.46
2018-09-03T04:36:05.987Z,21.46
2018-09-03T04:37:06.111Z,21.47
2018-09-03T04:38:05.951Z,21.47
2018-09-03T04:39:06.206Z,21.47
2018-09-03T04:40:05.883Z,21.47
2018-09-03T04:41:06.119Z,21.47
2018-09-03T04:42:05.906Z,21.47
2018-09-03T04:43:06.038Z,21.48
2018-09-03T04:44:06.088Z,21.48
2018-09-03T04:45:06.074Z,21.46
2018-09-03T04:46:06.078Z,21.47
2018-09-03T04:47:06.137Z,21.47
2018-09-03T04:48:06.199Z,21.47
2018-09-03T04:49:06.101Z,21.46
2018-09-03T04:50:05.888Z,21.46
2018-09-03T04:51:06.088Z,21.46
2018-09-03T04:52:05.864Z,21.48
2018-09-03T04:53:06.217Z,21.47
2018-09-03T04:54:06.118Z,21.46
2018-09-03T04:55:06.266Z,21.48
2018-09-03T04:56:05.968Z,21.47
2018-09-03T04:57:06.155Z,21.47
2018-09-03T04:58:05.892Z,21.47
2018-09-03T04:59:06.353Z,21.46
2018-09-03T05:00:05.857Z,21.46
2018-09-03T05:01:06.048Z,21.46
2018-09-03T05:02:05.911Z,21.47
2018-09-03T05:03:06.119Z,21.46
2018-09-03T05:04:05.924Z,21.46
2018-09-03T05:05:06.351Z,21.46
2018-09-03T05:06:05.947Z,21.46
2018-09-03T05:07:06.058Z,21.46
2018-09-03T05:08:06.010Z,21.46
2018-09-03T05:09:06.125Z,21.46
2018-09-03T05:10:06.180Z,21.47
2018-09-03T05:11:06.122Z,21.46
2018-09-03T05:12:05.908Z,21.46
2018-09-03T05:13:05.979Z,21.47
2018-09-03T05:14:05.890Z,21.47
2018-09-03T05:15:06.288Z,21.46
2018-09-03T05:16:05.893Z,21.46
2018-09-03T05:17:06.126Z,21.46
2018-09-03T05:18:05.922Z,21.46
2018-09-03T05:19:06.205Z,21.46
2018-09-03T05:20:06.122Z,21.46
2018-09-03T05:21:06.153Z,21.46
2018-09-03T05:22:06.208Z,21.46
2018-09-03T05:23:06.052Z,21.47
2018-09-03T05:24:05.902Z,21.47
2018-09-03T05:25:06.130Z,21.46
2018-09-03T05:26:05.877Z,21.47
2018-09-03T05:27:06.168Z,21.46
2018-09-03T05:28:06.215Z,21.47
2018-09-03T05:29:06.018Z,21.46
2018-09-03T05:30:05.953Z,21.46
2018-09-03T05:31:06.147Z,21.46
2018-09-03T05:32:05.934Z,21.47
2018-09-03T05:33:05.934Z,21.46
2018-09-03T05:34:05.906Z,21.45
2018-09-03T05:35:06.022Z,21.46
2018-09-03T05:36:05.884Z,21.46
2018-09-03T05:37:05.961Z,21.46
2018-09-03T05:38:05.863Z,21.46
2018-09-03T05:39:06.164Z,21.46
2018-09-03T05:40:05.851Z,21.46
2018-09-03T05:41:06.069Z,21.46
2018-09-03T05:42:06.029Z,21.47
2018-09-03T05:43:06.005Z,21.47
2018-09-03T05:44:06.157Z,21.46
2018-09-03T05:45:06.678Z,21.46
2018-09-03T05:46:06.047Z,21.46
2018-09-03T05:47:05.911Z,21.47
2018-09-03T05:48:05.913Z,21.47
2018-09-03T05:49:06.325Z,21.46
2018-09-03T05:50:06.096Z,21.46
2018-09-03T05:51:06.072Z,21.45
2018-09-03T05:52:05.972Z,21.45
2018-09-03T05:53:06.313Z,21.46
2018-09-03T05:54:05.902Z,21.45
2018-09-03T05:55:06.066Z,21.46
2018-09-03T05:56:05.823Z,21.45
2018-09-03T05:57:06.135Z,21.46
2018-09-03T05:58:05.862Z,21.46
2018-09-03T05:59:06.272Z,21.45
2018-09-03T06:00:06.005Z,21.45
2018-09-03T06:01:06.237Z,21.46
2018-09-03T06:02:05.889Z,21.45
2018-09-03T06:03:06.272Z,21.45
2018-09-03T06:04:05.896Z,21.45
2018-09-03T06:05:06.074Z,21.45
2018-09-03T06:06:06.124Z,21.46
2018-09-03T06:07:05.995Z,21.47
2018-09-03T06:08:05.859Z,21.45
2018-09-03T06:09:06.019Z,21.45
2018-09-03T06:10:05.940Z,21.45
2018-09-03T06:11:06.149Z,21.46
2018-09-03T06:12:05.872Z,21.46
2018-09-03T06:13:06.039Z,21.45
2018-09-03T06:14:05.888Z,21.46
2018-09-03T06:15:06.108Z,21.46
2018-09-03T06:16:05.991Z,21.46
2018-09-03T06:17:06.160Z,21.46
2018-09-03T06:18:06.017Z,21.45
2018-09-03T06:19:05.938Z,21.46
2018-09-03T06:20:06.085Z,21.46
2018-09-03T06:21:06.161Z,21.46
2018-09-03T06:22:05.839Z,21.45
2018-09-03T06:23:06.158Z,21.46
2018-09-03T06:24:06.349Z,21.46
2018-09-03T06:25:06.142Z,21.46
2018-09-03T06:26:05.972Z,21.46
2018-09-03T06:27:05.955Z,21.44
2018-09-03T06:28:05.850Z,21.43
2018-09-03T06:29:06.072Z,21.45
2018-09-03T06:30:05.825Z,21.45
2018-09-03T06:31:06.169Z,21.45
2018-09-03T06:32:05.964Z,21.44
2018-09-03T06:33:05.899Z,21.45
2018-09-03T06:34:06.124Z,21.45
2018-09-03T06:35:06.024Z,21.45
2018-09-03T06:36:06.098Z,21.45
2018-09-03T06:37:05.982Z,21.46
2018-09-03T06:38:06.353Z,21.45
2018-09-03T06:39:06.190Z,21.45
2018-09-03T06:40:05.974Z,21.43
2018-09-03T06:41:06.166Z,21.45
2018-09-03T06:42:06.136Z,21.45
2018-09-03T06:43:06.145Z,21.45
2018-09-03T06:44:05.941Z,21.45
2018-09-03T06:45:05.977Z,21.44
2018-09-03T06:46:05.871Z,21.45
2018-09-03T06:47:06.060Z,21.45
2018-09-03T06:48:05.911Z,21.45
2018-09-03T06:49:09.025Z,21.45
2018-09-03T06:50:05.901Z,21.45
2018-09-03T06:51:06.011Z,21.45
2018-09-03T06:52:05.888Z,21.46
2018-09-03T06:53:06.147Z,21.45
2018-09-03T06:54:05.852Z,21.44
2018-09-03T06:55:05.930Z,21.45
2018-09-03T06:56:06.119Z,21.45
2018-09-03T06:57:05.930Z,21.46
2018-09-03T06:58:05.834Z,21.45
2018-09-03T06:59:05.907Z,21.45
2018-09-03T07:00:05.920Z,21.45
2018-09-03T07:01:06.038Z,21.46
2018-09-03T07:02:05.894Z,21.45
2018-09-03T07:03:05.871Z,21.44
2018-09-03T07:04:05.945Z,21.44
2018-09-03T07:05:06.354Z,21.45
2018-09-03T07:06:05.970Z,21.44
2018-09-03T07:07:06.109Z,21.45
2018-09-03T07:08:06.000Z,21.44
2018-09-03T07:09:06.214Z,21.45
2018-09-03T07:10:05.892Z,21.45
2018-09-03T07:11:06.152Z,21.45
2018-09-03T07:12:05.971Z,21.44
2018-09-03T07:13:05.952Z,21.45
2018-09-03T07:14:06.091Z,21.44
2018-09-03T07:15:06.105Z,21.44
2018-09-03T07:16:05.816Z,21.45
2018-09-03T07:17:05.925Z,21.44
2018-09-03T07:18:05.976Z,21.45
2018-09-03T07:19:05.930Z,21.45
2018-09-03T07:20:05.935Z,21.4
2018-09-03T07:21:05.994Z,21.44
2018-09-03T07:22:05.839Z,21.46
2018-09-03T07:23:06.105Z,21.48
2018-09-03T07:24:06.029Z,21.47
2018-09-03T07:25:05.921Z,21.49
2018-09-03T07:26:06.279Z,21.51
2018-09-03T07:27:06.152Z,21.53
2018-09-03T07:28:05.882Z,21.55
2018-09-03T07:29:06.151Z,21.55
2018-09-03T07:30:05.808Z,21.57
2018-09-03T07:31:06.303Z,21.58
2018-09-03T07:32:05.951Z,21.6
2018-09-03T07:33:06.142Z,21.61
2018-09-03T07:34:06.037Z,21.62
2018-09-03T07:35:05.960Z,21.63
2018-09-03T07:36:06.279Z,21.63
2018-09-03T07:37:06.040Z,21.66
2018-09-03T07:38:05.904Z,21.66
2018-09-03T07:39:06.314Z,21.65
2018-09-03T07:40:05.918Z,21.66
2018-09-03T07:41:06.295Z,21.68
2018-09-03T07:42:05.907Z,21.69
2018-09-03T07:43:05.959Z,21.68
2018-09-03T07:44:06.001Z,21.69
2018-09-03T07:45:05.978Z,21.68
2018-09-03T07:46:05.963Z,21.71
2018-09-03T07:47:06.063Z,21.7
2018-09-03T07:48:05.885Z,21.71
2018-09-03T07:49:05.956Z,21.72
2018-09-03T07:50:05.811Z,21.73
2018-09-03T07:51:05.941Z,21.74
2018-09-03T07:52:05.915Z,21.71
2018-09-03T07:53:06.152Z,21.69
2018-09-03T07:54:06.066Z,21.68
2018-09-03T07:55:05.906Z,21.67
2018-09-03T07:56:05.892Z,21.67
2018-09-03T07:57:06.240Z,21.65
2018-09-03T07:58:06.052Z,21.64
2018-09-03T07:59:06.076Z,21.63
2018-09-03T08:00:05.951Z,21.63
2018-09-03T08:01:06.260Z,21.62
2018-09-03T08:02:05.971Z,21.61
2018-09-03T08:03:06.017Z,21.62
2018-09-03T08:04:05.984Z,21.62
2018-09-03T08:05:06.112Z,21.61
2018-09-03T08:06:05.849Z,21.61
2018-09-03T08:07:06.067Z,21.61
2018-09-03T08:08:06.015Z,21.6
2018-09-03T08:09:06.064Z,21.61
2018-09-03T08:10:06.029Z,21.59
2018-09-03T08:11:06.293Z,21.58
2018-09-03T08:12:05.810Z,21.59
2018-09-03T08:13:06.220Z,21.59
2018-09-03T08:14:05.921Z,21.58
2018-09-03T08:15:05.941Z,21.58
2018-09-03T08:16:05.871Z,21.57
2018-09-03T08:17:06.019Z,21.57
2018-09-03T08:18:05.870Z,21.56
2018-09-03T08:19:06.130Z,21.56
2018-09-03T08:20:06.004Z,21.57
2018-09-03T08:21:06.013Z,21.57
2018-09-03T08:22:05.908Z,21.55
2018-09-03T08:23:06.108Z,21.56
2018-09-03T08:24:05.859Z,21.55
2018-09-03T08:25:06.093Z,21.55
2018-09-03T08:26:05.896Z,21.55
2018-09-03T08:27:06.119Z,21.54
2018-09-03T08:28:05.838Z,21.56
2018-09-03T08:29:05.820Z,21.53
2018-09-03T08:30:05.917Z,21.55
2018-09-03T08:31:05.968Z,21.55
2018-09-03T08:32:06.149Z,21.55
2018-09-03T08:33:06.096Z,21.54
2018-09-03T08:34:05.911Z,21.55
2018-09-03T08:35:05.997Z,21.54
2018-09-03T08:36:05.981Z,21.53
2018-09-03T08:37:06.192Z,21.54
2018-09-03T08:38:06.120Z,21.54
2018-09-03T08:39:05.822Z,21.53
2018-09-03T08:40:05.931Z,21.53
2018-09-03T08:41:06.323Z,21.54
2018-09-03T08:42:06.046Z,21.53
2018-09-03T08:43:05.873Z,21.53
2018-09-03T08:44:06.010Z,21.53
2018-09-03T08:45:06.128Z,21.53
2018-09-03T08:46:05.848Z,21.54
2018-09-03T08:47:05.892Z,21.54
2018-09-03T08:48:05.860Z,21.53
2018-09-03T08:49:06.230Z,21.52
2018-09-03T08:50:05.833Z,21.52
2018-09-03T08:51:06.089Z,21.52
2018-09-03T08:52:06.119Z,21.52
2018-09-03T08:53:05.987Z,21.52
2018-09-03T08:54:06.126Z,21.52
2018-09-03T08:55:05.962Z,21.52
2018-09-03T08:56:05.942Z,21.52
2018-09-03T08:57:06.102Z,21.51
2018-09-03T08:58:05.890Z,21.52
2018-09-03T08:59:06.079Z,21.52
2018-09-03T09:00:05.824Z,21.51
2018-09-03T09:01:06.046Z,21.5
2018-09-03T09:02:05.944Z,21.52
2018-09-03T09:03:06.032Z,21.51
2018-09-03T09:04:05.844Z,21.51
2018-09-03T09:05:06.011Z,21.52
2018-09-03T09:06:05.872Z,21.52
2018-09-03T09:07:06.013Z,21.52
2018-09-03T09:08:05.917Z,21.51
2018-09-03T09:09:06.025Z,21.52
2018-09-03T09:10:05.997Z,21.52
2018-09-03T09:11:06.038Z,21.51
2018-09-03T09:12:05.905Z,21.51
2018-09-03T09:13:05.878Z,21.52
2018-09-03T09:14:05.860Z,21.5
2018-09-03T09:15:06.150Z,21.52
2018-09-03T09:16:05.828Z,21.51
2018-09-03T09:17:06.234Z,21.51
2018-09-03T09:18:05.782Z,21.51
2018-09-03T09:19:06.007Z,21.52
2018-09-03T09:20:05.871Z,21.52
2018-09-03T09:21:06.117Z,21.51
2018-09-03T09:22:05.885Z,21.52
2018-09-03T09:23:05.992Z,21.52
2018-09-03T09:24:05.784Z,21.52
2018-09-03T09:25:05.989Z,21.51
2018-09-03T09:26:05.939Z,21.51
2018-09-03T09:27:06.089Z,21.51
2018-09-03T09:28:05.903Z,21.49
2018-09-03T09:29:06.045Z,21.51
2018-09-03T09:30:05.825Z,21.51
2018-09-03T09:31:06.013Z,21.51
2018-09-03T09:32:06.349Z,21.51
2018-09-03T09:33:06.011Z,21.49
2018-09-03T09:34:05.850Z,21.5
2018-09-03T09:35:06.021Z,21.49
2018-09-03T09:36:05.910Z,21.49
2018-09-03T09:37:06.079Z,21.5
2018-09-03T09:38:05.975Z,21.5
2018-09-03T09:39:06.143Z,21.49
2018-09-03T09:40:05.878Z,21.51
2018-09-03T09:41:05.957Z,21.51
2018-09-03T09:42:05.788Z,21.51
2018-09-03T09:43:06.165Z,21.51
2018-09-03T09:44:05.900Z,21.51
2018-09-03T09:45:05.905Z,21.5
2018-09-03T09:46:05.870Z,21.51
2018-09-03T09:47:05.934Z,21.5
2018-09-03T09:48:05.835Z,21.49
2018-09-03T09:49:05.989Z,21.5
2018-09-03T09:50:05.870Z,21.5
2018-09-03T09:51:06.083Z,21.51
2018-09-03T09:52:05.884Z,21.51
2018-09-03T09:53:05.933Z,21.51
2018-09-03T09:54:05.781Z,21.51
2018-09-03T09:55:05.960Z,21.52
2018-09-03T09:56:06.038Z,21.51
2018-09-03T09:57:06.078Z,21.51
2018-09-03T09:58:05.791Z,21.51
2018-09-03T09:59:05.944Z,21.5
2018-09-03T10:00:06.399Z,21.51
2018-09-03T10:01:05.994Z,21.51
2018-09-03T10:02:05.995Z,21.5
2018-09-03T10:03:06.220Z,21.5
2018-09-03T10:04:05.877Z,21.52
2018-09-03T10:05:06.211Z,21.5
2018-09-03T10:06:05.888Z,21.51
2018-09-03T10:07:06.142Z,21.51
2018-09-03T10:08:05.846Z,21.51
2018-09-03T10:09:05.939Z,21.51
2018-09-03T10:10:06.075Z,21.51
2018-09-03T10:11:06.080Z,21.51
2018-09-03T10:12:06.092Z,21.51
2018-09-03T10:13:05.893Z,21.5
2018-09-03T10:14:06.803Z,21.52
2018-09-03T10:15:06.044Z,21.48
2018-09-03T10:16:05.942Z,21.5
2018-09-03T10:17:06.625Z,21.5
2018-09-03T10:18:05.818Z,21.51
2018-09-03T10:19:05.899Z,21.51
2018-09-03T10:20:05.809Z,21.51
2018-09-03T10:21:06.344Z,21.5
2018-09-03T10:22:05.877Z,21.51
2018-09-03T10:23:06.131Z,21.51
2018-09-03T10:24:05.815Z,21.49
2018-09-03T10:25:05.946Z,21.5
2018-09-03T10:26:05.784Z,21.5
2018-09-03T10:27:05.978Z,21.5
2018-09-03T10:28:06.003Z,21.5
2018-09-03T10:29:06.051Z,21.51
2018-09-03T10:30:05.838Z,21.49
2018-09-03T10:31:05.975Z,21.5
2018-09-03T10:32:05.912Z,21.5
2018-09-03T10:33:05.868Z,21.5
2018-09-03T10:34:05.878Z,21.51
2018-09-03T10:35:05.996Z,21.5
2018-09-03T10:36:05.866Z,21.49
2018-09-03T10:37:06.135Z,21.49
2018-09-03T10:38:06.066Z,21.49
2018-09-03T10:39:06.139Z,21.5
2018-09-03T10:40:05.892Z,21.49
2018-09-03T10:41:05.947Z,21.5
2018-09-03T10:42:06.287Z,21.49
2018-09-03T10:43:06.046Z,21.49
2018-09-03T10:44:05.963Z,21.5
2018-09-03T10:45:06.164Z,21.5
2018-09-03T10:46:05.789Z,21.5
2018-09-03T10:47:06.195Z,21.5
2018-09-03T10:48:05.887Z,21.49
2018-09-03T10:49:05.799Z,21.49
2018-09-03T10:50:05.807Z,21.49
2018-09-03T10:51:06.205Z,21.48
2018-09-03T10:52:05.898Z,21.48
2018-09-03T10:53:05.943Z,21.49
2018-09-03T10:54:05.860Z,21.48
2018-09-03T10:55:05.989Z,21.5
2018-09-03T10:56:06.009Z,21.49
2018-09-03T10:57:06.362Z,21.47
2018-09-03T10:58:05.881Z,21.49
2018-09-03T10:59:05.933Z,21.49
2018-09-03T11:00:05.812Z,21.48
2018-09-03T11:01:06.003Z,21.48
2018-09-03T11:02:05.813Z,21.48
2018-09-03T11:03:06.037Z,21.48
2018-09-03T11:04:05.825Z,21.48
2018-09-03T11:05:06.073Z,21.48
2018-09-03T11:06:05.920Z,21.48
2018-09-03T11:07:06.064Z,21.47
2018-09-03T11:08:05.822Z,21.45
2018-09-03T11:09:06.065Z,21.46
2018-09-03T11:10:05.795Z,21.47
2018-09-03T11:11:06.017Z,21.47
2018-09-03T11:12:05.799Z,21.48
2018-09-03T11:13:05.927Z,21.47
2018-09-03T11:14:05.919Z,21.48
2018-09-03T11:15:06.058Z,21.48
2018-09-03T11:16:05.925Z,21.48
2018-09-03T11:17:05.926Z,21.48
2018-09-03T11:18:05.901Z,21.48
2018-09-03T11:19:05.828Z,21.48
2018-09-03T11:20:05.931Z,21.48
2018-09-03T11:21:06.088Z,21.5
2018-09-03T11:22:05.919Z,21.53
2018-09-03T11:23:06.092Z,21.56
2018-09-03T11:24:06.131Z,21.56
2018-09-03T11:25:05.994Z,21.56
2018-09-03T11:26:05.817Z,21.59
2018-09-03T11:27:05.929Z,21.61
2018-09-03T11:28:05.802Z,21.61
2018-09-03T11:29:06.033Z,21.62
2018-09-03T11:30:05.811Z,21.64
2018-09-03T11:31:05.992Z,21.65
2018-09-03T11:32:05.866Z,21.66
2018-09-03T11:33:06.069Z,21.67
2018-09-03T11:34:05.958Z,21.69
2018-09-03T11:35:06.006Z,21.7
2018-09-03T11:36:05.919Z,21.71
2018-09-03T11:37:06.083Z,21.72
2018-09-03T11:38:05.786Z,21.72
2018-09-03T11:39:05.999Z,21.73
2018-09-03T11:40:05.832Z,21.72
2018-09-03T11:41:06.124Z,21.74
2018-09-03T11:42:05.856Z,21.73
2018-09-03T11:43:06.093Z,21.74
2018-09-03T11:44:05.844Z,21.75
2018-09-03T11:45:06.170Z,21.76
2018-09-03T11:46:05.877Z,21.76
2018-09-03T11:47:06.062Z,21.77
2018-09-03T11:48:05.855Z,21.79
2018-09-03T11:49:06.231Z,21.8
2018-09-03T11:50:05.768Z,21.8
2018-09-03T11:51:05.910Z,21.81
2018-09-03T11:52:05.935Z,21.82
2018-09-03T11:53:05.967Z,21.81
2018-09-03T11:54:06.042Z,21.83
2018-09-03T11:55:06.010Z,21.81
2018-09-03T11:56:05.849Z,21.82
2018-09-03T11:57:05.913Z,21.81
2018-09-03T11:58:05.785Z,21.82
2018-09-03T11:59:06.007Z,21.83
2018-09-03T12:00:05.999Z,21.82
2018-09-03T12:01:06.089Z,21.81
2018-09-03T12:02:06.371Z,21.83
2018-09-03T12:03:05.960Z,21.83
2018-09-03T12:04:05.846Z,21.83
2018-09-03T12:05:06.236Z,21.84
2018-09-03T12:06:06.053Z,21.86
2018-09-03T12:07:06.004Z,21.88
2018-09-03T12:08:05.816Z,21.87
2018-09-03T12:09:06.018Z,21.86
2018-09-03T12:10:05.866Z,21.87
2018-09-03T12:11:05.878Z,21.89
2018-09-03T12:12:05.856Z,21.89
2018-09-03T12:13:06.078Z,21.88
2018-09-03T12:14:05.792Z,21.88
2018-09-03T12:15:06.155Z,21.88
2018-09-03T12:16:05.984Z,21.89
2018-09-03T12:17:05.997Z,21.89
2018-09-03T12:18:05.991Z,21.89
2018-09-03T12:19:05.961Z,21.9
2018-09-03T12:20:06.195Z,21.88
2018-09-03T12:21:06.055Z,21.9
2018-09-03T12:22:05.901Z,21.9
2018-09-03T12:23:06.042Z,21.92
2018-09-03T12:24:05.794Z,21.9
2018-09-03T12:25:05.901Z,21.89
2018-09-03T12:26:05.801Z,21.88
2018-09-03T12:27:05.958Z,21.83
2018-09-03T12:28:05.861Z,21.83
2018-09-03T12:29:06.061Z,21.81
2018-09-03T12:30:05.784Z,21.8
2018-09-03T12:31:05.795Z,21.78
2018-09-03T12:32:05.868Z,21.79
2018-09-03T12:33:05.794Z,21.79
2018-09-03T12:34:05.802Z,21.78
2018-09-03T12:35:05.908Z,21.76
2018-09-03T12:36:05.766Z,21.74
2018-09-03T12:37:06.014Z,21.75
2018-09-03T12:38:05.793Z,21.73
2018-09-03T12:39:05.946Z,21.73
2018-09-03T12:40:05.781Z,21.73
2018-09-03T12:41:06.036Z,21.7
2018-09-03T12:42:05.860Z,21.7
2018-09-03T12:43:05.861Z,21.7
2018-09-03T12:44:05.815Z,21.7
2018-09-03T12:45:05.974Z,21.68
2018-09-03T12:46:05.918Z,21.7
2018-09-03T12:47:05.950Z,21.68
2018-09-03T12:48:05.794Z,21.67
2018-09-03T12:49:05.995Z,21.68
2018-09-03T12:50:05.878Z,21.67
2018-09-03T12:51:06.048Z,21.66
2018-09-03T12:52:05.977Z,21.67
2018-09-03T12:53:05.830Z,21.67
2018-09-03T12:54:05.844Z,21.66
2018-09-03T12:55:05.882Z,21.66